Main page
METAR-TAF:

METAR-TAF

Airports :

Rouen Airport

Rouen, France

latitude: 49-23N, longitude: 001-11E, elevation: 157 m

Current weather observation

The report was made 22 minutes ago, at 23:00 UTC
Wind 9 kt from the West/Southwest
Temperature 12°C
Humidity 100%
Pressure 1022 hPa
Visibility 10 km or more
Broken clouds at a height of 700 ft
Overcast at a height of 1900 ft

METAR: LFOP 252300Z AUTO 24009KT 9999 BKN007 OVC019 12/12 Q1022

Time: 01:22 (23:22 UTC)

Forecast

The report was made 6 hours and 22 minutes ago, at 17:00 UTC
Forecast valid from 25 at 18 UTC to 26 at 18 UTC
Wind 13 kt from the Southwest
Visibility 10 km or more
Overcast at a height of 3000 ft
Temporary
from 25 at 22 UTC to 26 at 06 UTC
Visibility: 3000 m
Overcast at a height of 700 ft
drizzle

TAF: LFOP 251700Z 2518/2618 23013KT 9999 OVC030 TEMPO 2522/2606 3000 DZ OVC007

Weather observations and forecasts of more than 4000 airports (METAR and TAF reports).

The available stations are represented by yellow and red dots on the map.

Hover mouse over dot to see the name of the station.

Then click to see weather observations and forecasts.

To change the map : click on the green buttons with a black cross to zoom in, on the green button with a dash to zoom out, or on the green arrows for adjacent maps.


METAR-TAF: